Time;durP1;ratioP1;P1;durP2;ratioP2;P2;SDS_P1;SDS_P2;PMS_P1;PMS_P2;Temp;Humidity;BMP_temperature;BMP_pressure;BME280_temperature;BME280_humidity;BME280_pressure;Samples;Min_cycle;Max_cycle;Signal;HPM_P1;HPM_P2
2022/01/02 00:00:45;;;;;;;3.88;1.90;;;;;;;-4.39;72.52;98944.66;5073319;28;20078;-88
2022/01/02 00:03:35;;;;;;;3.00;1.98;;;;;;;-4.36;72.69;98949.91;5073530;28;20058;-89
2022/01/02 00:06:26;;;;;;;2.58;1.80;;;;;;;-4.25;72.98;98967.41;5075916;28;20154;-87
2022/01/02 00:09:20;;;;;;;3.45;2.13;;;;;;;-4.22;72.96;98993.91;5070218;28;20179;-86
2022/01/02 00:12:12;;;;;;;4.75;2.33;;;;;;;-4.20;73.02;98969.34;5056666;28;20067;-85
2022/01/02 00:14:58;;;;;;;1.75;1.50;;;;;;;-4.41;73.22;98941.16;5069390;28;20143;-88
2022/01/02 00:17:45;;;;;;;2.90;2.03;;;;;;;-4.29;73.04;98961.25;5071742;28;20145;-87
2022/01/02 00:20:32;;;;;;;2.97;1.70;;;;;;;-4.29;72.58;98966.38;5071129;28;20106;-88
2022/01/02 00:23:21;;;;;;;4.15;2.30;;;;;;;-4.29;72.68;98975.69;5075722;28;20421;-88
2022/01/02 00:26:15;;;;;;;2.35;1.90;;;;;;;-4.21;73.02;98997.34;5077899;28;20090;-88
2022/01/02 00:29:04;;;;;;;3.33;2.22;;;;;;;-4.26;73.32;98986.03;5080499;28;20537;-87
2022/01/02 00:31:52;;;;;;;3.42;1.88;;;;;;;-4.29;73.03;98991.88;5072830;28;20125;-85
2022/01/02 00:34:40;;;;;;;4.00;2.28;;;;;;;-4.33;73.45;98978.09;5073728;28;20090;-87
2022/01/02 00:37:26;;;;;;;3.92;2.15;;;;;;;-4.26;73.30;98992.00;5071318;28;20426;-86
2022/01/02 00:40:14;;;;;;;2.90;1.63;;;;;;;-4.20;72.87;98992.28;5072074;28;20091;-83
2022/01/02 00:43:04;;;;;;;3.47;2.25;;;;;;;-4.29;72.77;98985.91;5075722;28;20060;-83
2022/01/02 00:45:51;;;;;;;3.65;2.42;;;;;;;-4.25;73.13;98998.88;5083555;28;20385;-85
2022/01/02 00:48:41;;;;;;;4.80;2.83;;;;;;;-4.33;72.71;98995.06;5085348;28;20055;-84
2022/01/02 00:51:37;;;;;;;2.88;2.03;;;;;;;-4.28;72.69;99005.47;5086807;28;20108;-86
2022/01/02 00:54:28;;;;;;;3.95;2.17;;;;;;;-4.43;72.88;98978.47;5088047;28;20066;-87
2022/01/02 00:57:17;;;;;;;4.00;2.08;;;;;;;-4.32;72.84;99014.69;5076335;28;20067;-87
2022/01/02 01:00:16;;;;;;;3.50;2.20;;;;;;;-4.27;72.88;99013.22;5076631;28;20105;-87
2022/01/02 01:03:10;;;;;;;4.45;2.17;;;;;;;-4.30;72.35;99009.63;5079002;28;20186;-88
2022/01/02 01:05:57;;;;;;;4.32;2.40;;;;;;;-4.38;72.26;98988.88;5080421;28;20063;-88
2022/01/02 01:08:43;;;;;;;3.67;2.17;;;;;;;-4.30;72.67;98999.44;5076304;28;20052;-89
2022/01/02 01:11:29;;;;;;;4.90;2.58;;;;;;;-4.35;72.37;99006.88;5060630;28;20122;-85
2022/01/02 01:14:15;;;;;;;5.05;2.70;;;;;;;-4.46;72.58;98995.28;5082651;28;20047;-86
2022/01/02 01:17:01;;;;;;;5.78;2.78;;;;;;;-4.35;72.69;99027.25;5074645;28;20066;-84
2022/01/02 01:19:49;;;;;;;5.35;2.38;;;;;;;-4.42;72.76;99010.78;5091562;28;20070;-84
2022/01/02 01:22:36;;;;;;;6.45;3.30;;;;;;;-4.40;72.95;99009.19;5102681;28;20078;-83
2022/01/02 01:25:24;;;;;;;5.20;2.95;;;;;;;-4.33;72.77;99035.88;5103341;28;20054;-83
2022/01/02 01:28:11;;;;;;;3.97;2.38;;;;;;;-4.37;73.42;99029.72;5102561;28;20054;-82
2022/01/02 01:30:57;;;;;;;3.47;2.45;;;;;;;-4.41;73.15;99014.22;5091503;28;20121;-83
2022/01/02 01:33:44;;;;;;;4.22;2.60;;;;;;;-4.47;72.55;99011.34;5106709;28;20078;-83
2022/01/02 01:36:29;;;;;;;4.63;2.22;;;;;;;-4.45;72.33;99028.50;5102189;28;20059;-84
2022/01/02 01:39:15;;;;;;;6.82;2.40;;;;;;;-4.56;71.45;99050.00;5099520;28;20209;-85
2022/01/02 01:42:08;;;;;;;4.25;2.47;;;;;;;-4.68;71.46;99031.59;5096248;28;20170;-86
2022/01/02 01:45:28;;;;;;;5.07;1.95;;;;;;;-4.71;71.30;99034.84;5093648;28;20055;-89
2022/01/02 01:48:11;;;;;;;3.72;2.13;;;;;;;-4.91;71.04;99049.09;5080018;28;20063;-88
2022/01/02 01:50:57;;;;;;;2.47;1.92;;;;;;;-4.85;70.93;99049.44;5076600;28;20055;-86
2022/01/02 01:53:43;;;;;;;2.30;2.10;;;;;;;-4.84;70.12;99101.25;5088684;28;20056;-86
2022/01/02 01:56:28;;;;;;;2.40;1.65;;;;;;;-4.99;70.32;99043.63;5074948;28;20068;-84
2022/01/02 01:59:16;;;;;;;3.10;1.67;;;;;;;-5.01;69.65;99037.59;5074343;28;20060;-85
2022/01/02 02:02:03;;;;;;;1.70;1.60;;;;;;;-4.96;69.79;99063.28;5047288;28;20129;-86
2022/01/02 02:04:49;;;;;;;2.05;1.55;;;;;;;-5.08;69.77;99038.03;5075739;28;20063;-85
2022/01/02 02:07:42;;;;;;;1.75;1.60;;;;;;;-5.05;70.23;99050.09;5088898;28;20063;-83
2022/01/02 02:10:38;;;;;;;2.13;1.70;;;;;;;-4.96;69.95;99053.97;5092800;28;20082;-83
2022/01/02 02:13:27;;;;;;;3.15;1.90;;;;;;;-4.97;69.76;99075.16;5090702;28;20067;-87
2022/01/02 02:16:16;;;;;;;3.13;1.60;;;;;;;-5.09;69.76;99071.97;5074352;28;20086;-85
2022/01/02 02:19:04;;;;;;;1.95;1.50;;;;;;;-5.05;69.93;99070.47;5073407;28;20055;-85
2022/01/02 02:21:50;;;;;;;3.40;1.70;;;;;;;-5.16;69.67;99062.25;5073903;28;20426;-86
2022/01/02 02:24:37;;;;;;;1.88;1.23;;;;;;;-5.11;69.49;99072.69;5072910;28;20155;-86
2022/01/02 02:27:23;;;;;;;2.78;1.63;;;;;;;-5.26;69.79;99047.28;5073330;28;20647;-87
2022/01/02 02:30:09;;;;;;;2.67;1.60;;;;;;;-5.11;70.15;99062.50;5070901;28;20097;-85
2022/01/02 02:32:57;;;;;;;1.70;1.50;;;;;;;-5.07;70.05;99067.84;5071225;28;20094;-86
2022/01/02 02:35:46;;;;;;;1.55;1.40;;;;;;;-5.05;69.63;99071.34;5071444;28;20059;-85
2022/01/02 02:38:32;;;;;;;2.50;1.35;;;;;;;-5.13;69.26;99064.09;5056856;28;20063;-85
2022/01/02 02:41:20;;;;;;;1.77;1.23;;;;;;;-5.25;69.69;99044.84;5070860;28;20143;-84
2022/01/02 02:44:17;;;;;;;1.98;1.45;;;;;;;-5.12;69.38;99061.59;5072631;28;20489;-85
2022/01/02 02:50:08;;;;;;;2.92;1.67;;;;;;;-5.09;69.18;99099.13;5073016;28;20059;-85
2022/01/02 02:52:55;;;;;;;2.53;1.83;;;;;;;-5.17;69.35;99070.69;5078370;28;20062;-83
2022/01/02 02:55:47;;;;;;;1.42;1.30;;;;;;;-5.13;69.28;99071.72;5081496;28;20056;-85
2022/01/02 03:01:25;;;;;;;3.43;1.70;;;;;;;-5.00;69.59;99112.31;5092650;28;20059;-84
2022/01/02 03:04:12;;;;;;;2.45;1.80;;;;;;;-5.00;69.39;99104.69;5093666;28;20637;-86
2022/01/02 03:06:59;;;;;;;2.38;1.33;;;;;;;-4.92;69.68;99113.63;5094450;28;20662;-83
2022/01/02 03:09:51;;;;;;;1.67;1.50;;;;;;;-4.89;69.51;99129.03;5091738;28;20101;-83
2022/01/02 03:12:39;;;;;;;3.28;1.55;;;;;;;-5.05;69.78;99093.41;5095216;28;20145;-84
2022/01/02 03:15:25;;;;;;;2.83;1.80;;;;;;;-4.83;69.50;99129.38;5109356;28;20063;-86
2022/01/02 03:18:11;;;;;;;1.92;1.70;;;;;;;-4.88;69.55;99125.72;5113032;28;20047;-86
2022/01/02 03:20:57;;;;;;;3.28;1.65;;;;;;;-4.84;69.38;99157.31;5114112;28;20069;-84
2022/01/02 03:23:43;;;;;;;3.20;1.52;;;;;;;-4.96;69.43;99107.47;5108936;28;20086;-84
2022/01/02 03:26:28;;;;;;;4.32;2.25;;;;;;;-4.81;69.60;99132.88;5097882;28;20558;-85
2022/01/02 03:29:14;;;;;;;2.22;1.90;;;;;;;-4.94;69.40;99125.38;5090662;28;20070;-85
2022/01/02 03:32:00;;;;;;;2.85;2.00;;;;;;;-4.99;69.15;99137.88;5094591;28;20070;-84
2022/01/02 03:34:46;;;;;;;3.60;2.00;;;;;;;-5.05;69.71;99131.59;5068721;28;20102;-84
2022/01/02 03:37:34;;;;;;;6.47;2.92;;;;;;;-4.94;69.88;99161.06;5076628;28;20067;-84
2022/01/02 03:40:19;;;;;;;3.92;2.33;;;;;;;-5.01;69.57;99151.31;5058286;28;20439;-83
2022/01/02 03:43:06;;;;;;;5.28;3.10;;;;;;;-4.94;70.21;99173.78;5073514;28;20110;-85
2022/01/02 03:45:52;;;;;;;4.32;2.80;;;;;;;-4.90;70.05;99172.25;5074201;28;20643;-85
2022/01/02 03:48:38;;;;;;;7.90;3.22;;;;;;;-4.94;69.71;99176.34;5073319;28;20052;-86
2022/01/02 03:51:25;;;;;;;7.30;4.20;;;;;;;-4.96;69.91;99185.56;5071522;28;20060;-88
2022/01/02 03:54:13;;;;;;;11.65;5.18;;;;;;;-5.02;70.05;99162.31;5076259;28;20044;-88
2022/01/02 03:57:09;;;;;;;11.10;5.63;;;;;;;-5.07;70.31;99154.44;5080101;28;20052;-86
2022/01/02 03:59:54;;;;;;;12.63;5.35;;;;;;;-4.98;69.71;99160.00;5077205;28;20063;-87
2022/01/02 04:02:40;;;;;;;8.30;5.28;;;;;;;-5.09;70.25;99156.00;5072936;28;20059;-86
2022/01/02 04:05:29;;;;;;;11.32;6.40;;;;;;;-5.13;70.00;99171.91;5061593;28;20146;-84
2022/01/02 04:08:15;;;;;;;11.80;6.28;;;;;;;-5.10;70.24;99184.81;5061401;28;20438;-84
2022/01/02 04:11:00;;;;;;;11.38;6.05;;;;;;;-5.12;70.31;99193.16;5060703;28;20063;-87
2022/01/02 04:13:46;;;;;;;15.52;7.20;;;;;;;-5.23;70.03;99183.25;5057350;28;20441;-85
2022/01/02 04:16:32;;;;;;;12.77;7.57;;;;;;;-5.17;70.19;99177.63;5056254;28;20154;-87
2022/01/02 04:19:17;;;;;;;13.82;6.82;;;;;;;-5.12;69.95;99177.88;5070999;28;20430;-87
2022/01/02 04:22:03;;;;;;;10.25;5.50;;;;;;;-5.19;70.05;99164.81;5070822;28;20060;-86
2022/01/02 04:24:49;;;;;;;8.88;5.20;;;;;;;-5.17;70.07;99180.19;5042532;28;20055;-89
2022/01/02 04:27:39;;;;;;;9.00;4.63;;;;;;;-5.30;69.75;99168.44;5053421;28;20604;-86
2022/01/02 04:30:26;;;;;;;7.78;4.13;;;;;;;-5.23;69.77;99201.09;5070375;28;20080;-87
2022/01/02 04:33:12;;;;;;;4.57;3.10;;;;;;;-5.35;69.83;99172.44;5061892;28;20075;-83
2022/01/02 04:35:59;;;;;;;5.93;3.30;;;;;;;-5.24;69.90;99201.03;5052694;28;20110;-86
2022/01/02 04:38:45;;;;;;;4.18;2.85;;;;;;;-5.30;69.45;99188.81;5041153;28;20064;-86
2022/01/02 04:41:30;;;;;;;4.88;2.80;;;;;;;-5.26;69.65;99211.13;5054910;28;20071;-86
2022/01/02 04:44:16;;;;;;;4.78;2.67;;;;;;;-5.41;68.89;99189.91;5056330;28;20055;-85
2022/01/02 04:47:03;;;;;;;2.72;2.08;;;;;;;-5.44;69.43;99187.16;5028468;28;20142;-87
2022/01/02 04:49:49;;;;;;;3.38;2.10;;;;;;;-5.56;68.61;99180.63;5041625;28;20087;-82
2022/01/02 04:52:35;;;;;;;4.80;1.70;;;;;;;-5.43;68.90;99214.41;5041791;28;20099;-84
2022/01/02 04:55:21;;;;;;;4.72;2.03;;;;;;;-5.53;68.66;99197.72;5041522;28;20421;-82
2022/01/02 04:58:07;;;;;;;2.20;1.55;;;;;;;-5.45;68.55;99229.56;5042260;28;20130;-87
2022/01/02 05:00:55;;;;;;;2.65;1.80;;;;;;;-5.57;68.45;99208.50;5055760;28;20079;-86
2022/01/02 05:03:41;;;;;;;8.95;3.55;;;;;;;-5.49;68.34;99206.41;5042440;28;20647;-85
2022/01/02 05:06:28;;;;;;;3.47;1.75;;;;;;;-5.45;68.59;99232.13;5039224;28;20748;-83
2022/01/02 05:09:14;;;;;;;2.08;1.60;;;;;;;-5.51;68.14;99229.22;5057218;28;20576;-85
2022/01/02 05:12:00;;;;;;;2.50;1.52;;;;;;;-5.59;67.77;99211.00;5054750;28;20175;-85
2022/01/02 05:14:47;;;;;;;2.03;1.40;;;;;;;-5.67;68.51;99201.16;5034449;28;20068;-85
2022/01/02 05:17:36;;;;;;;1.50;1.40;;;;;;;-5.60;68.49;99227.03;5112998;22;20133;-87
2022/01/02 05:20:22;;;;;;;4.65;1.85;;;;;;;-5.48;67.97;99244.69;5085610;28;20523;-85
2022/01/02 05:23:10;;;;;;;6.82;1.70;;;;;;;-5.50;67.74;99233.53;5056820;28;20060;-85
2022/01/02 05:25:57;;;;;;;3.83;1.50;;;;;;;-5.52;67.81;99231.69;5068285;28;20513;-86
2022/01/02 05:28:43;;;;;;;1.80;1.33;;;;;;;-5.58;67.83;99233.09;5072653;28;20074;-85
2022/01/02 05:31:28;;;;;;;5.85;1.70;;;;;;;-5.62;67.67;99236.25;5070001;28;20056;-87
2022/01/02 05:34:16;;;;;;;2.70;1.40;;;;;;;-5.57;67.88;99261.97;5069967;28;20631;-83
2022/01/02 05:37:03;;;;;;;9.38;1.85;;;;;;;-5.57;68.21;99239.06;5075140;28;20432;-83
2022/01/02 05:39:50;;;;;;;3.17;1.85;;;;;;;-5.56;68.47;99254.41;5078313;28;20058;-81
2022/01/02 05:42:36;;;;;;;5.18;1.88;;;;;;;-5.63;67.95;99238.72;5069101;28;20172;-83
2022/01/02 05:45:22;;;;;;;1.70;1.25;;;;;;;-5.64;67.69;99257.31;5087583;28;20059;-84
2022/01/02 05:48:08;;;;;;;2.03;1.15;;;;;;;-5.66;67.92;99263.97;5088517;28;20405;-84
2022/01/02 05:50:56;;;;;;;1.42;1.20;;;;;;;-5.71;68.04;99262.84;5071519;28;20047;-86
2022/01/02 05:53:50;;;;;;;3.95;1.20;;;;;;;-5.78;68.42;99252.31;5072695;28;20062;-83
2022/01/02 05:56:36;;;;;;;2.97;1.73;;;;;;;-5.64;67.86;99262.41;5080742;28;20055;-89
2022/01/02 05:59:25;;;;;;;3.40;1.30;;;;;;;-5.59;68.24;99273.75;5095999;28;20117;-91
2022/01/02 06:02:19;;;;;;;1.27;1.17;;;;;;;-5.80;68.41;99240.31;5076977;28;20058;-84
2022/01/02 06:05:06;;;;;;;5.00;2.38;;;;;;;-5.61;68.43;99263.47;5092379;28;20137;-87
2022/01/02 06:07:52;;;;;;;4.72;2.03;;;;;;;-5.51;68.90;99295.41;5086074;28;20059;-86
2022/01/02 06:10:38;;;;;;;3.63;1.88;;;;;;;-5.46;68.89;99293.13;5084897;28;20730;-87
2022/01/02 06:13:24;;;;;;;5.88;2.55;;;;;;;-5.47;69.16;99292.25;5074900;28;20058;-89
2022/01/02 06:16:13;;;;;;;7.05;2.97;;;;;;;-5.38;69.24;99296.97;5055036;28;20046;-89
2022/01/02 06:19:00;;;;;;;6.32;3.00;;;;;;;-5.37;69.33;99307.25;5086484;28;20062;-88
2022/01/02 06:21:47;;;;;;;3.33;2.40;;;;;;;-5.40;69.23;99313.84;5069749;28;20178;-91
2022/01/02 06:24:33;;;;;;;4.38;2.67;;;;;;;-5.59;69.34;99299.19;5079385;28;20107;-88
2022/01/02 06:27:20;;;;;;;7.13;3.20;;;;;;;-5.48;69.58;99308.31;5086704;28;20064;-90
2022/01/02 06:30:08;;;;;;;4.25;2.70;;;;;;;-5.41;69.53;99328.25;5076437;28;20524;-86
2022/01/02 06:32:56;;;;;;;4.00;3.08;;;;;;;-5.33;68.99;99336.34;5084047;28;20059;-90
2022/01/02 06:35:44;;;;;;;4.07;2.78;;;;;;;-5.37;69.31;99340.38;5070126;28;20051;-89
2022/01/02 06:38:31;;;;;;;4.93;2.55;;;;;;;-5.50;68.92;99329.41;5059885;28;20270;-90
2022/01/02 06:41:18;;;;;;;2.58;2.30;;;;;;;-5.44;68.87;99332.28;5060489;28;20060;-87
2022/01/02 06:44:04;;;;;;;5.70;2.72;;;;;;;-5.63;69.79;99318.50;5076380;28;20071;-88
2022/01/02 06:46:50;;;;;;;4.45;2.75;;;;;;;-5.47;69.98;99338.06;5070629;28;20059;-89
2022/01/02 06:49:47;;;;;;;4.65;2.60;;;;;;;-5.52;70.30;99336.94;5097472;28;20059;-90
2022/01/02 06:52:38;;;;;;;6.40;3.08;;;;;;;-5.63;70.15;99315.94;5081096;28;20135;-91
2022/01/02 06:55:27;;;;;;;4.75;3.13;;;;;;;-5.60;70.26;99328.84;5090077;28;20040;-94
2022/01/02 06:58:16;;;;;;;6.40;3.15;;;;;;;-5.72;70.34;99324.69;5115173;28;20063;-88
2022/01/02 07:01:02;;;;;;;5.85;2.95;;;;;;;-5.49;70.43;99341.31;5098437;28;20043;-91
2022/01/02 07:03:49;;;;;;;5.85;2.50;;;;;;;-5.66;70.42;99345.41;5092760;28;20067;-88
2022/01/02 07:06:35;;;;;;;4.72;2.30;;;;;;;-5.59;70.66;99348.41;5056460;28;20056;-88
2022/01/02 07:09:21;;;;;;;4.75;2.15;;;;;;;-5.59;70.40;99353.50;5082966;28;20145;-89
2022/01/02 07:12:07;;;;;;;3.30;2.30;;;;;;;-5.82;70.40;99323.28;5075422;28;20064;-85
2022/01/02 07:14:53;;;;;;;5.70;2.10;;;;;;;-5.83;70.78;99319.88;5084723;28;20058;-85
2022/01/02 07:17:39;;;;;;;5.82;2.17;;;;;;;-5.63;70.08;99345.63;5102417;28;20055;-88
2022/01/02 07:20:25;;;;;;;3.38;1.90;;;;;;;-5.60;70.17;99322.88;5088053;28;20101;-88
2022/01/02 07:23:11;;;;;;;4.32;1.70;;;;;;;-5.45;69.37;99333.06;5075567;28;20155;-90
2022/01/02 07:25:57;;;;;;;3.67;1.85;;;;;;;-5.33;68.81;99343.06;5077283;28;20059;-89
2022/01/02 07:28:43;;;;;;;4.15;1.85;;;;;;;-5.51;68.06;99320.84;5074908;28;20548;-87
2022/01/02 07:31:29;;;;;;;5.13;2.13;;;;;;;-5.38;68.06;99364.09;5076785;28;20538;-87
2022/01/02 07:34:17;;;;;;;17.98;4.28;;;;;;;-5.36;68.32;99354.84;5062609;28;20098;-87
2022/01/02 07:37:08;;;;;;;5.18;2.20;;;;;;;-5.31;67.90;99333.84;5089278;28;20055;-84
2022/01/02 07:39:54;;;;;;;11.15;4.03;;;;;;;-5.13;68.03;99357.84;5084922;28;20058;-87
2022/01/02 07:42:40;;;;;;;4.57;2.53;;;;;;;-4.93;67.44;99364.06;5092429;28;20066;-90
2022/01/02 07:45:33;;;;;;;14.32;7.05;;;;;;;-4.98;67.18;99342.56;5075380;28;20185;-86
2022/01/02 07:48:19;;;;;;;10.20;4.00;;;;;;;-4.77;67.29;99370.91;5062682;28;20066;-85
2022/01/02 07:51:07;;;;;;;3.65;2.30;;;;;;;-4.71;67.14;99385.66;5091414;28;20063;-88
2022/01/02 07:53:53;;;;;;;6.45;2.55;;;;;;;-4.96;67.08;99376.66;5061781;28;20504;-88
2022/01/02 07:56:40;;;;;;;4.40;2.47;;;;;;;-5.19;67.72;99371.09;5072575;28;20051;-87
2022/01/02 07:59:26;;;;;;;6.07;2.30;;;;;;;-5.23;67.20;99392.06;5073432;28;20138;-87
2022/01/02 08:02:12;;;;;;;3.28;2.03;;;;;;;-5.32;67.49;99381.38;5071464;28;20059;-88
2022/01/02 08:04:58;;;;;;;5.63;2.50;;;;;;;-5.20;67.61;99387.19;5071736;28;20113;-88
2022/01/02 08:07:44;;;;;;;3.88;2.40;;;;;;;-5.37;67.18;99355.63;5074031;28;20173;-87
2022/01/02 08:10:29;;;;;;;4.47;2.10;;;;;;;-5.00;66.88;99400.19;5063758;28;20125;-85
2022/01/02 08:13:15;;;;;;;5.28;2.35;;;;;;;-4.96;66.81;99391.94;5047759;28;20163;-86
2022/01/02 08:16:01;;;;;;;4.35;2.30;;;;;;;-4.79;66.78;99392.88;5074129;28;20070;-88
2022/01/02 08:18:47;;;;;;;4.47;2.17;;;;;;;-4.73;66.22;99398.34;5076456;28;20147;-87
2022/01/02 08:21:33;;;;;;;4.78;2.40;;;;;;;-4.93;66.08;99402.28;5063971;28;20101;-83
2022/01/02 08:24:19;;;;;;;6.30;2.65;;;;;;;-4.97;66.28;99413.97;5086635;28;20050;-81
2022/01/02 08:27:04;;;;;;;4.00;2.42;;;;;;;-5.06;66.30;99405.78;5071182;28;20186;-81
2022/01/02 08:29:53;;;;;;;11.18;4.60;;;;;;;-4.94;66.51;99398.00;5056496;28;20059;-85
2022/01/02 08:32:39;;;;;;;4.35;1.88;;;;;;;-4.96;65.91;99397.03;5072548;28;20429;-85
2022/01/02 08:35:24;;;;;;;6.03;2.53;;;;;;;-4.96;65.91;99395.34;5061975;28;20063;-83
2022/01/02 08:38:11;;;;;;;12.13;5.68;;;;;;;-4.94;65.75;99416.69;5074556;28;20129;-89
2022/01/02 08:40:57;;;;;;;6.63;2.45;;;;;;;-4.91;65.77;99400.69;5076295;28;20067;-84
2022/01/02 08:43:43;;;;;;;4.47;2.33;;;;;;;-4.98;65.97;99404.56;5072198;28;20058;-84
2022/01/02 08:46:28;;;;;;;4.85;3.30;;;;;;;-5.00;65.65;99400.19;5092061;28;20059;-81
2022/01/02 08:49:17;;;;;;;5.88;2.38;;;;;;;-4.95;65.37;99425.16;5091951;28;20544;-87
2022/01/02 08:52:05;;;;;;;2.28;1.88;;;;;;;-5.03;65.22;99418.72;5050890;28;20579;-89
2022/01/02 08:54:51;;;;;;;3.42;2.20;;;;;;;-5.04;65.20;99426.25;5080601;28;20425;-84
2022/01/02 08:57:37;;;;;;;3.75;2.40;;;;;;;-5.03;65.42;99411.09;5082541;28;20079;-83
2022/01/02 09:00:24;;;;;;;2.78;2.10;;;;;;;-4.90;64.85;99410.13;5070368;28;20067;-87
2022/01/02 09:03:10;;;;;;;2.72;1.90;;;;;;;-4.98;64.44;99427.50;5077403;28;20058;-87
2022/01/02 09:05:56;;;;;;;2.53;1.80;;;;;;;-5.48;64.32;99388.91;5093677;28;20055;-84
2022/01/02 09:08:47;;;;;;;2.33;1.80;;;;;;;-5.26;65.03;99427.56;5073591;28;20199;-87
2022/01/02 09:11:32;;;;;;;4.15;1.90;;;;;;;-5.20;64.55;99427.94;5073933;28;20087;-87
2022/01/02 09:14:19;;;;;;;3.08;1.65;;;;;;;-5.31;64.71;99413.69;5080590;28;20075;-90
2022/01/02 09:17:05;;;;;;;2.78;2.03;;;;;;;-5.31;64.04;99418.78;5076861;28;20071;-86
2022/01/02 09:19:52;;;;;;;3.30;1.90;;;;;;;-5.29;64.06;99431.59;5059570;28;20059;-86
2022/01/02 09:22:39;;;;;;;4.95;2.10;;;;;;;-5.38;64.13;99419.19;5075271;28;20433;-83
2022/01/02 09:25:26;;;;;;;4.97;2.58;;;;;;;-5.31;64.04;99433.16;5073444;28;20087;-86
2022/01/02 09:28:11;;;;;;;4.93;2.28;;;;;;;-5.43;63.88;99438.41;5075290;28;20075;-83
2022/01/02 09:30:57;;;;;;;4.43;2.20;;;;;;;-5.37;63.90;99411.66;5074445;28;20051;-87
2022/01/02 09:33:43;;;;;;;4.00;2.00;;;;;;;-5.46;63.80;99400.94;5082684;28;20059;-82
2022/01/02 09:36:29;;;;;;;4.40;2.50;;;;;;;-5.38;64.41;99414.09;5085481;28;20063;-83
2022/01/02 09:39:15;;;;;;;6.07;3.38;;;;;;;-5.30;64.69;99405.25;5080249;28;20075;-82
2022/01/02 09:42:00;;;;;;;5.65;3.10;;;;;;;-5.13;64.38;99418.09;5089867;28;20433;-82
2022/01/02 09:44:46;;;;;;;5.13;2.88;;;;;;;-5.28;64.82;99393.50;5077849;28;20063;-85
2022/01/02 09:47:33;;;;;;;8.63;4.50;;;;;;;-5.17;65.33;99392.44;5058994;28;20060;-88
2022/01/02 09:50:19;;;;;;;8.23;3.80;;;;;;;-4.98;65.42;99406.25;5074380;28;20059;-84
2022/01/02 09:53:05;;;;;;;12.02;4.53;;;;;;;-4.97;65.26;99393.59;5057605;28;20233;-83
2022/01/02 09:55:33;;;;;;;5.18;2.78;;;;;;;-5.08;65.06;99375.94;5074527;28;20059;-82
2022/01/02 09:58:04;;;;;;;11.15;4.82;;;;;;;-5.00;65.36;99387.44;5061385;28;20518;-83
2022/01/02 10:00:31;;;;;;;5.78;3.30;;;;;;;-4.90;65.27;99392.28;5079602;28;20097;-86
2022/01/02 10:03:04;;;;;;;14.32;5.50;;;;;;;-4.89;64.54;99396.56;5070999;28;20161;-84
2022/01/02 10:05:53;;;;;;;4.93;3.08;;;;;;;-4.91;64.59;99395.59;5039658;28;20060;-84
2022/01/02 10:08:25;;;;;;;5.03;2.60;;;;;;;-4.94;64.81;99392.91;5059778;28;20053;-81
2022/01/02 10:11:05;;;;;;;4.97;2.83;;;;;;;-5.09;64.66;99387.78;5086306;28;20110;-85
2022/01/02 10:13:56;;;;;;;4.20;2.90;;;;;;;-4.97;65.20;99418.19;5098846;28;20055;-83
2022/01/02 10:16:26;;;;;;;5.57;3.03;;;;;;;-4.89;64.71;99404.22;5076315;28;20064;-83
2022/01/02 10:18:55;;;;;;;6.80;3.13;;;;;;;-4.72;64.18;99409.41;5080773;28;20060;-82
2022/01/02 10:21:35;;;;;;;6.82;3.38;;;;;;;-4.62;63.90;99419.34;5080302;28;20053;-83
2022/01/02 10:24:21;;;;;;;5.20;3.00;;;;;;;-4.65;64.00;99420.00;5076911;28;20502;-81
2022/01/02 10:27:09;;;;;;;6.45;3.58;;;;;;;-4.60;63.78;99418.63;5075042;28;20120;-81
2022/01/02 10:29:54;;;;;;;5.97;3.50;;;;;;;-4.45;63.36;99415.16;5078136;28;20052;-82
2022/01/02 10:32:22;;;;;;;5.63;3.30;;;;;;;-4.42;63.04;99431.50;5075112;28;20075;-84
2022/01/02 10:34:50;;;;;;;3.72;2.72;;;;;;;-4.62;63.04;99424.44;5072314;28;20052;-84
2022/01/02 10:37:25;;;;;;;4.60;2.28;;;;;;;-4.62;63.13;99449.91;5074107;28;20071;-85
2022/01/02 10:39:52;;;;;;;4.68;2.78;;;;;;;-4.85;63.51;99439.28;5067793;28;20057;-83
2022/01/02 10:42:20;;;;;;;3.80;2.70;;;;;;;-4.92;63.29;99455.00;5069624;28;20132;-83
2022/01/02 10:44:56;;;;;;;3.70;2.35;;;;;;;-5.01;63.43;99457.91;5071766;28;20103;-82
2022/01/02 10:47:25;;;;;;;9.05;2.67;;;;;;;-4.99;63.53;99469.06;5064596;28;20059;-81
2022/01/02 10:50:03;;;;;;;4.68;2.42;;;;;;;-5.07;63.29;99456.66;5062445;28;20055;-83
2022/01/02 10:52:35;;;;;;;6.78;3.20;;;;;;;-5.20;63.25;99473.75;5061094;28;20098;-85
2022/01/02 10:55:07;;;;;;;4.75;2.92;;;;;;;-5.15;63.40;99457.06;5058250;28;20045;-81
2022/01/02 10:57:34;;;;;;;3.65;2.35;;;;;;;-5.26;62.93;99435.19;5061957;28;20095;-83
2022/01/02 11:00:03;;;;;;;5.82;2.92;;;;;;;-5.22;63.16;99446.47;5057751;28;20583;-79
2022/01/02 11:02:31;;;;;;;5.57;2.15;;;;;;;-5.26;63.25;99468.31;5070201;28;20173;-82
2022/01/02 11:05:03;;;;;;;3.97;2.30;;;;;;;-5.48;63.47;99434.72;5070740;28;20102;-85
2022/01/02 11:07:39;;;;;;;4.40;2.65;;;;;;;-5.36;63.73;99464.31;5072584;28;20102;-85
2022/01/02 11:10:08;;;;;;;6.95;3.05;;;;;;;-5.31;64.21;99477.34;5072664;28;20057;-81
2022/01/02 11:12:37;;;;;;;3.67;2.70;;;;;;;-5.61;63.91;99433.13;5072607;28;20052;-82
2022/01/02 11:15:07;;;;;;;7.70;3.55;;;;;;;-5.45;64.50;99460.34;5074685;28;20142;-85
2022/01/02 11:17:35;;;;;;;6.03;3.08;;;;;;;-5.37;64.52;99484.63;5088164;28;20052;-82
2022/01/02 11:20:11;;;;;;;7.22;2.97;;;;;;;-5.45;64.63;99481.59;5073713;28;20052;-81
2022/01/02 11:22:49;;;;;;;4.63;2.55;;;;;;;-5.39;65.11;99486.19;5091787;28;20420;-83
2022/01/02 11:25:39;;;;;;;6.65;2.97;;;;;;;-5.46;65.07;99474.75;5093067;28;20048;-84
2022/01/02 11:28:13;;;;;;;;;;;;;;;-5.54;65.41;99492.91;5094846;28;20054;-81
2022/01/02 11:30:41;;;;;;;6.20;2.85;;;;;;;-5.63;65.76;99496.63;5094156;28;19924;-82
2022/01/02 11:33:16;;;;;;;4.22;2.45;;;;;;;-5.80;65.48;99474.38;5075063;28;20131;-85
2022/01/02 11:35:47;;;;;;;6.30;2.58;;;;;;;-5.70;65.48;99457.97;5094612;28;20196;-82
2022/01/02 11:38:25;;;;;;;;;;;;;;;-5.53;65.57;99485.34;5095583;28;20081;-84
2022/01/02 11:40:53;;;;;;;6.00;2.58;;;;;;;-5.47;65.27;99489.94;5085966;28;19939;-83
2022/01/02 11:43:36;;;;;;;5.05;2.38;;;;;;;-5.47;65.37;99493.34;5059079;28;20048;-83
2022/01/02 11:46:31;;;;;;;6.45;2.50;;;;;;;-5.46;65.95;99481.50;5093455;28;20060;-83
2022/01/02 11:49:04;;;;;;;5.22;2.90;;;;;;;-5.41;66.29;99481.00;5073356;28;20072;-82
2022/01/02 11:51:47;;;;;;;6.28;2.80;;;;;;;-5.45;65.63;99490.91;5092244;28;20054;-82
2022/01/02 11:54:32;;;;;;;4.82;2.80;;;;;;;-5.46;65.96;99492.56;5090020;28;20052;-85
2022/01/02 11:57:15;;;;;;;5.07;3.25;;;;;;;-5.82;66.12;99459.00;5078857;28;20060;-80
2022/01/02 12:03:44;;;;;;;5.57;2.97;;;;;;;-6.02;66.55;99478.16;5071813;28;20056;-81
2022/01/02 12:06:17;;;;;;;5.00;2.40;;;;;;;-5.99;66.62;99468.16;5053777;28;20048;-82
2022/01/02 12:08:44;;;;;;;7.30;2.75;;;;;;;-5.98;66.79;99467.38;5052776;28;20197;-81
2022/01/02 12:11:43;;;;;;;5.00;3.10;;;;;;;-5.95;67.00;99481.09;5070465;28;20501;-80
2022/01/02 12:14:18;;;;;;;8.43;4.20;;;;;;;-6.15;67.25;99472.19;5049419;28;20040;-79
2022/01/02 12:16:58;;;;;;;10.80;4.45;;;;;;;-6.30;67.47;99482.25;5077295;28;20052;-83
2022/01/02 12:19:27;;;;;;;5.53;3.60;;;;;;;-6.47;67.63;99486.28;5059586;28;20057;-82
2022/01/02 12:22:15;;;;;;;5.68;3.00;;;;;;;-6.61;67.74;99463.38;5070356;28;20056;-80
2022/01/02 12:24:43;;;;;;;7.07;3.40;;;;;;;-6.55;67.31;99478.16;5070841;28;20049;-81
2022/01/02 12:27:15;;;;;;;8.52;4.05;;;;;;;-6.60;67.33;99487.16;5074951;28;20052;-82
2022/01/02 12:29:43;;;;;;;8.90;3.40;;;;;;;-6.53;67.67;99496.06;5078829;28;20104;-81
2022/01/02 12:32:10;;;;;;;8.13;3.40;;;;;;;-6.55;67.62;99495.06;5078080;28;20063;-81
2022/01/02 12:34:40;;;;;;;5.38;2.95;;;;;;;-6.50;67.26;99511.47;5069427;28;20048;-82
2022/01/02 12:37:07;;;;;;;5.72;2.58;;;;;;;-6.39;67.31;99510.50;5072981;28;20052;-79
2022/01/02 12:39:36;;;;;;;6.20;3.05;;;;;;;-6.40;66.85;99526.56;5074463;28;21010;-83
2022/01/02 12:42:12;;;;;;;5.38;3.03;;;;;;;-6.38;66.67;99515.69;5090459;28;20059;-82
2022/01/02 12:44:40;;;;;;;5.13;2.90;;;;;;;-6.43;66.70;99501.81;5082561;28;20103;-80
2022/01/02 12:47:19;;;;;;;4.65;2.67;;;;;;;-6.24;66.80;99534.41;5082772;28;20055;-80
2022/01/02 12:49:47;;;;;;;;;;;;;;;-6.27;66.45;99530.78;5082352;28;20043;-80
2022/01/02 12:56:01;;;;;;;4.57;2.80;;;;;;;-6.23;65.76;99538.69;5080775;28;20576;-79
2022/01/02 12:58:34;;;;;;;3.53;2.33;;;;;;;-6.26;65.62;99529.97;5082913;28;20103;-82
2022/01/02 13:01:03;;;;;;;5.65;2.80;;;;;;;-6.38;65.66;99503.00;5084273;28;20567;-83
2022/01/02 13:03:36;;;;;;;4.90;2.63;;;;;;;-6.24;66.41;99536.94;5086482;28;20084;-81
2022/01/02 13:06:04;;;;;;;5.15;3.03;;;;;;;-6.20;65.89;99525.28;5084177;28;20509;-82